Time;durP1;ratioP1;P1;durP2;ratioP2;P2;SDS_P1;SDS_P2;PMS_P1;PMS_P2;Temp;Humidity;BMP_temperature;BMP_pressure;BME280_temperature;BME280_humidity;BME280_pressure;Samples;Min_cycle;Max_cycle;Signal;HPM_P1;HPM_P2
2023/10/19 00:01:10;;;;;;;0.90;0.90;;;;;;;3.11;100.00;98287.19;4750183;30;20059;-79
2023/10/19 00:03:37;;;;;;;0.90;0.90;;;;;;;3.13;100.00;98279.78;4751625;30;20048;-79
2023/10/19 00:06:05;;;;;;;0.90;0.90;;;;;;;3.14;100.00;98276.09;4751400;30;20077;-79
2023/10/19 00:08:41;;;;;;;0.90;0.90;;;;;;;3.20;100.00;98281.41;4751634;30;20052;-78
2023/10/19 00:11:10;;;;;;;0.80;0.80;;;;;;;3.20;100.00;98280.59;4751294;30;20134;-78
2023/10/19 00:13:39;;;;;;;0.80;0.80;;;;;;;3.22;100.00;98278.53;4751735;30;20055;-79
2023/10/19 00:16:29;;;;;;;0.90;0.90;;;;;;;3.20;100.00;98284.06;4751270;30;20432;-78
2023/10/19 00:18:59;;;;;;;0.90;0.90;;;;;;;3.17;100.00;98279.16;4752510;30;20141;-79
2023/10/19 00:21:27;;;;;;;0.82;0.82;;;;;;;3.21;100.00;98284.88;4751299;30;20062;-77
2023/10/19 00:23:57;;;;;;;0.85;0.85;;;;;;;3.22;100.00;98274.00;4751190;30;20079;-78
2023/10/19 00:26:26;;;;;;;0.85;0.85;;;;;;;3.25;100.00;98278.91;4735590;30;20055;-79
2023/10/19 00:28:57;;;;;;;0.90;0.90;;;;;;;3.22;100.00;98279.34;4751089;30;20086;-79
2023/10/19 00:31:28;;;;;;;0.90;0.90;;;;;;;3.20;100.00;98281.41;4751200;30;20056;-79
2023/10/19 00:33:57;;;;;;;0.80;0.80;;;;;;;3.20;100.00;98267.25;4751085;30;20063;-79
2023/10/19 00:36:26;;;;;;;0.90;0.90;;;;;;;3.20;100.00;98272.59;4749845;30;20056;-78
2023/10/19 00:38:53;;;;;;;0.90;0.90;;;;;;;3.18;100.00;98277.31;4764410;30;20528;-79
2023/10/19 00:41:29;;;;;;;0.85;0.85;;;;;;;3.22;100.00;98274.00;4751033;30;20516;-79
2023/10/19 00:44:11;;;;;;;0.80;0.80;;;;;;;3.23;100.00;98274.81;4764330;30;20184;-79
2023/10/19 00:46:43;;;;;;;0.90;0.90;;;;;;;3.22;100.00;98273.19;4751019;30;20122;-79
2023/10/19 00:49:15;;;;;;;0.90;0.90;;;;;;;3.19;100.00;98274.44;4735202;30;20056;-79
2023/10/19 00:54:35;;;;;;;0.80;0.80;;;;;;;3.21;100.00;98274.19;4750747;30;20060;-80
2023/10/19 00:57:09;;;;;;;0.90;0.90;;;;;;;3.27;100.00;98276.03;4750918;30;20081;-79
2023/10/19 00:59:54;;;;;;;0.90;0.90;;;;;;;3.27;100.00;98273.38;4750517;30;20118;-78
2023/10/19 01:02:28;;;;;;;0.90;0.90;;;;;;;3.28;100.00;98271.50;4750828;30;20519;-79
2023/10/19 01:05:07;;;;;;;0.90;0.90;;;;;;;3.27;100.00;98281.34;4749181;30;20527;-79
2023/10/19 01:07:38;;;;;;;0.90;0.90;;;;;;;3.25;100.00;98276.22;4750732;30;20436;-79
2023/10/19 01:10:08;;;;;;;0.90;0.90;;;;;;;3.27;100.00;98273.38;4763032;30;20088;-79
2023/10/19 01:12:39;;;;;;;0.85;0.85;;;;;;;3.31;100.00;98271.06;4749325;30;20109;-79
2023/10/19 01:15:14;;;;;;;0.90;0.90;;;;;;;3.25;100.00;98270.09;4750613;30;20059;-79
2023/10/19 01:17:43;;;;;;;0.90;0.90;;;;;;;3.20;100.00;98270.72;4750615;30;20155;-78
2023/10/19 01:20:23;;;;;;;0.90;0.90;;;;;;;3.21;100.00;98263.53;4750351;30;20509;-78
2023/10/19 01:22:55;;;;;;;0.90;0.90;;;;;;;3.22;100.00;98273.19;4750689;30;20056;-79
2023/10/19 01:25:34;;;;;;;0.90;0.90;;;;;;;3.22;100.00;98270.53;4750257;30;20139;-79
2023/10/19 01:28:08;;;;;;;0.90;0.90;;;;;;;3.22;100.00;98270.53;4750304;30;20063;-79
2023/10/19 01:30:39;;;;;;;0.90;0.90;;;;;;;3.22;100.00;98270.53;4749074;30;20463;-79
2023/10/19 01:33:12;;;;;;;0.90;0.90;;;;;;;3.21;100.00;98268.88;4750092;30;20294;-79
2023/10/19 01:38:33;;;;;;;0.90;0.90;;;;;;;3.23;100.00;98264.16;4749180;30;20063;-78
2023/10/19 01:41:14;;;;;;;0.90;0.90;;;;;;;3.18;100.00;98261.31;4750105;30;20578;-79
2023/10/19 01:43:42;;;;;;;0.90;0.90;;;;;;;3.22;100.00;98258.00;4750464;30;20083;-78
2023/10/19 01:46:21;;;;;;;0.90;0.90;;;;;;;3.22;100.00;98268.66;4748828;30;20504;-78
2023/10/19 01:48:54;;;;;;;0.80;0.80;;;;;;;3.14;100.00;98260.09;4749023;30;20483;-79
2023/10/19 01:51:26;;;;;;;0.82;0.82;;;;;;;3.17;100.00;98263.16;4750359;30;20147;-79
2023/10/19 01:53:55;;;;;;;0.90;0.90;;;;;;;3.19;100.00;98265.59;4763883;30;20087;-78
2023/10/19 01:56:24;;;;;;;0.80;0.80;;;;;;;3.23;100.00;98256.97;4750206;30;20068;-79
2023/10/19 01:58:52;;;;;;;0.80;0.80;;;;;;;3.24;100.00;98260.44;4750247;30;20087;-78
2023/10/19 02:03:58;;;;;;;0.80;0.80;;;;;;;3.24;100.00;98257.78;4749959;30;20409;-78
2023/10/19 02:06:37;;;;;;;0.90;0.90;;;;;;;3.23;100.00;98256.97;4750009;30;20056;-79
2023/10/19 02:12:01;;;;;;;0.80;0.80;;;;;;;3.16;100.00;98261.50;4782977;30;20051;-79
2023/10/19 02:14:33;;;;;;;0.90;0.90;;;;;;;3.17;100.00;98257.81;4768897;30;20392;-79
2023/10/19 02:17:05;;;;;;;0.90;0.90;;;;;;;3.19;100.00;98258.44;4782857;29;20142;-79
2023/10/19 02:19:33;;;;;;;0.90;0.90;;;;;;;3.18;100.00;98261.31;4783252;30;20150;-79
2023/10/19 02:22:06;;;;;;;0.90;0.90;;;;;;;3.17;100.00;98251.69;4783335;29;20060;-79
2023/10/19 02:24:33;;;;;;;0.85;0.85;;;;;;;3.19;100.00;98261.09;4786732;30;20575;-79
2023/10/19 02:27:01;;;;;;;0.90;0.90;;;;;;;3.15;100.00;98259.88;4786395;30;20063;-79
2023/10/19 02:29:28;;;;;;;0.90;0.90;;;;;;;3.17;100.00;98254.34;4786771;30;20059;-79
2023/10/19 02:31:56;;;;;;;1.00;1.00;;;;;;;3.17;100.00;98251.69;4786433;30;20534;-79
2023/10/19 02:34:24;;;;;;;0.80;0.80;;;;;;;3.19;100.00;98257.59;4786390;29;20052;-78
2023/10/19 02:36:51;;;;;;;0.95;0.95;;;;;;;3.21;100.00;98260.88;4786561;30;20055;-79
2023/10/19 02:39:21;;;;;;;0.80;0.80;;;;;;;3.22;100.00;98258.00;4786324;30;20432;-78
2023/10/19 02:41:48;;;;;;;0.90;0.90;;;;;;;3.21;100.00;98259.00;4786302;30;20467;-78
2023/10/19 02:44:23;;;;;;;0.90;0.90;;;;;;;3.18;100.00;98253.31;4771200;30;20051;-79
2023/10/19 02:46:53;;;;;;;0.90;0.90;;;;;;;3.18;100.00;98258.63;4771501;30;20140;-78
2023/10/19 02:49:22;;;;;;;0.90;0.90;;;;;;;3.16;100.00;98258.03;4756743;29;20071;-78
2023/10/19 02:51:51;;;;;;;0.90;0.90;;;;;;;3.16;100.00;98255.38;4751648;30;20068;-77
2023/10/19 02:54:39;;;;;;;0.90;0.90;;;;;;;3.18;100.00;98255.97;4752873;30;20060;-78
2023/10/19 02:57:07;;;;;;;0.90;0.90;;;;;;;3.16;100.00;98252.69;4767735;30;20055;-79
2023/10/19 02:59:35;;;;;;;0.90;0.90;;;;;;;3.17;100.00;98249.81;4753313;30;20063;-79
2023/10/19 03:04:37;;;;;;;0.90;0.90;;;;;;;3.14;100.00;98252.09;4768273;30;20516;-78
2023/10/19 03:07:07;;;;;;;0.80;0.80;;;;;;;3.11;100.00;98244.53;4753335;30;20451;-79
2023/10/19 03:09:53;;;;;;;0.90;0.90;;;;;;;3.09;100.00;98247.44;4753140;30;20151;-79
2023/10/19 03:12:25;;;;;;;0.90;0.90;;;;;;;3.10;100.00;98248.25;4767980;30;20207;-78
2023/10/19 03:14:52;;;;;;;0.85;0.85;;;;;;;3.04;100.00;98250.72;4768050;30;20499;-78
2023/10/19 03:17:20;;;;;;;0.90;0.90;;;;;;;3.06;100.00;98244.34;4752949;30;20524;-80
2023/10/19 03:19:48;;;;;;;0.90;0.90;;;;;;;3.11;100.00;98244.53;4768025;30;20063;-79
2023/10/19 03:22:17;;;;;;;0.80;0.80;;;;;;;3.17;100.00;98249.03;4767688;30;20056;-80
2023/10/19 03:24:44;;;;;;;0.80;0.80;;;;;;;3.13;100.00;98240.63;4753084;30;20086;-79
2023/10/19 03:27:21;;;;;;;0.90;0.90;;;;;;;3.18;100.00;98253.31;4766237;30;20062;-80
2023/10/19 03:29:54;;;;;;;0.80;0.80;;;;;;;3.16;100.00;98250.84;4752414;30;20063;-78
2023/10/19 03:32:26;;;;;;;0.90;0.90;;;;;;;3.15;100.00;98251.06;4750981;30;20059;-80
2023/10/19 03:34:59;;;;;;;0.80;0.80;;;;;;;3.17;100.00;98249.81;4751949;30;20084;-79
2023/10/19 03:37:31;;;;;;;0.90;0.90;;;;;;;3.17;100.00;98254.34;4752131;30;20121;-79
2023/10/19 03:39:59;;;;;;;0.70;0.70;;;;;;;3.16;100.00;98253.50;4751754;30;20587;-79
2023/10/19 03:42:29;;;;;;;0.90;0.90;;;;;;;3.18;100.00;98250.63;4765622;30;20593;-79
2023/10/19 03:44:57;;;;;;;0.90;0.90;;;;;;;3.17;100.00;98252.50;4750668;30;20094;-79
2023/10/19 03:47:38;;;;;;;0.90;0.90;;;;;;;3.18;100.00;98251.44;4765241;30;20048;-78
2023/10/19 03:50:25;;;;;;;0.88;0.88;;;;;;;3.17;100.00;98252.50;4747729;30;20075;-79
2023/10/19 03:52:53;;;;;;;0.90;0.90;;;;;;;3.23;100.00;98258.81;4732352;30;20096;-79
2023/10/19 03:55:22;;;;;;;0.90;0.90;;;;;;;3.21;100.00;98259.00;4732465;30;20056;-82
2023/10/19 03:57:54;;;;;;;0.90;0.90;;;;;;;3.17;100.00;98249.81;4734116;30;20489;-82
2023/10/19 04:00:25;;;;;;;0.88;0.88;;;;;;;3.22;100.00;98263.34;4732523;30;20161;-83
2023/10/19 04:02:53;;;;;;;0.85;0.85;;;;;;;3.23;100.00;98258.81;4750134;30;20087;-81
2023/10/19 04:05:26;;;;;;;0.90;0.90;;;;;;;3.24;100.00;98250.59;4749807;30;20595;-81
2023/10/19 04:07:57;;;;;;;0.90;0.90;;;;;;;3.22;100.00;98250.00;4751212;30;20103;-80
2023/10/19 04:11:11;;;;;;;0.90;0.90;;;;;;;3.24;100.00;98250.59;4751246;30;20575;-82
2023/10/19 04:13:13;;;;;;;0.82;0.82;;;;;;;3.25;100.00;98259.41;4753539;30;20589;-80
2023/10/19 04:15:41;;;;;;;0.90;0.90;;;;;;;3.23;100.00;98262.28;4750519;30;20071;-79
2023/10/19 04:18:09;;;;;;;0.90;0.90;;;;;;;3.23;100.00;98259.63;4750559;30;20093;-81
2023/10/19 04:23:17;;;;;;;0.80;0.80;;;;;;;3.31;100.00;98258.53;4742806;30;20105;-80
2023/10/19 04:25:47;;;;;;;0.90;0.90;;;;;;;3.40;100.00;98259.94;4741659;30;20466;-81
2023/10/19 04:28:15;;;;;;;0.80;0.80;;;;;;;3.37;100.00;98263.03;4748401;30;20049;-82
2023/10/19 04:30:42;;;;;;;0.80;0.80;;;;;;;3.41;100.00;98266.06;4750577;30;20067;-80
2023/10/19 04:33:10;;;;;;;0.80;0.80;;;;;;;3.40;100.00;98262.59;4750640;30;20485;-79
2023/10/19 04:35:37;;;;;;;0.85;0.85;;;;;;;3.39;100.00;98263.63;4749269;30;20060;-82
2023/10/19 04:38:06;;;;;;;0.80;0.80;;;;;;;3.42;100.00;98267.72;4747943;30;20056;-80
2023/10/19 04:40:33;;;;;;;0.90;0.90;;;;;;;3.43;100.00;98267.50;4742792;30;20159;-81
2023/10/19 04:43:05;;;;;;;0.90;0.90;;;;;;;3.38;100.00;98262.00;4741549;30;20052;-82
2023/10/19 04:45:32;;;;;;;0.90;0.90;;;;;;;3.42;100.00;98273.88;4741195;30;20067;-79
2023/10/19 04:48:00;;;;;;;0.90;0.90;;;;;;;3.46;100.00;98264.38;4418058;30;10000200;-81
2023/10/19 04:50:27;;;;;;;0.80;0.80;;;;;;;3.49;100.00;98268.47;4747278;30;20059;-78
2023/10/19 04:52:54;;;;;;;0.80;0.80;;;;;;;3.48;100.00;98265.00;4745822;30;20068;-80
2023/10/19 04:55:21;;;;;;;0.70;0.70;;;;;;;3.47;100.00;98260.69;4759840;30;20063;-81
2023/10/19 04:57:49;;;;;;;0.90;0.90;;;;;;;3.48;100.00;98262.31;4744346;30;20471;-81
2023/10/19 05:00:17;;;;;;;0.75;0.75;;;;;;;3.50;100.00;98270.13;4738071;30;20074;-81
2023/10/19 05:02:44;;;;;;;0.90;0.90;;;;;;;3.50;100.00;98269.31;4737448;30;20057;-79
2023/10/19 05:05:14;;;;;;;0.85;0.85;;;;;;;3.50;100.00;98274.66;4736771;30;20063;-80
2023/10/19 05:07:42;;;;;;;0.80;0.80;;;;;;;3.47;100.00;98273.22;4737535;30;20053;-80
2023/10/19 05:10:11;;;;;;;0.85;0.85;;;;;;;3.46;100.00;98275.06;4751564;30;20109;-81
2023/10/19 05:12:38;;;;;;;0.90;0.90;;;;;;;3.51;100.00;98268.25;4735531;30;20160;-81
2023/10/19 05:15:06;;;;;;;0.90;0.90;;;;;;;3.48;100.00;98262.31;4751859;30;20112;-79
2023/10/19 05:17:33;;;;;;;0.80;0.80;;;;;;;3.54;100.00;98273.16;4736544;30;20072;-81
2023/10/19 05:20:00;;;;;;;0.80;0.80;;;;;;;3.54;100.00;98273.97;4739029;30;20143;-80
2023/10/19 05:22:32;;;;;;;0.80;0.80;;;;;;;3.57;100.00;98275.38;4750113;30;20060;-82
2023/10/19 05:25:01;;;;;;;0.90;0.90;;;;;;;3.61;100.00;98281.94;4746188;30;20076;-80
2023/10/19 05:27:31;;;;;;;0.80;0.80;;;;;;;3.66;100.00;98280.25;4742006;30;20060;-80
2023/10/19 05:30:00;;;;;;;0.88;0.88;;;;;;;3.65;100.00;98278.63;4750278;30;20055;-80
2023/10/19 05:32:33;;;;;;;0.90;0.90;;;;;;;3.69;100.00;98274.47;4749308;30;20056;-81
2023/10/19 05:35:04;;;;;;;0.90;0.90;;;;;;;3.73;100.00;98279.38;4734389;30;20055;-81
2023/10/19 05:37:33;;;;;;;0.90;0.90;;;;;;;3.72;100.00;98286.56;4750282;30;20060;-80
2023/10/19 05:40:04;;;;;;;0.85;0.85;;;;;;;3.76;100.00;98282.44;4749920;30;20063;-80
2023/10/19 05:42:34;;;;;;;0.70;0.70;;;;;;;3.69;100.00;98276.31;4748457;30;20052;-80
2023/10/19 05:45:02;;;;;;;0.90;0.90;;;;;;;3.77;100.00;98288.56;4749353;30;20060;-82
2023/10/19 05:47:31;;;;;;;0.80;0.80;;;;;;;3.73;100.00;98282.88;4749797;30;20056;-79
2023/10/19 05:49:59;;;;;;;0.90;0.90;;;;;;;3.81;100.00;98287.94;4749017;30;20171;-80
2023/10/19 05:52:26;;;;;;;0.80;0.80;;;;;;;3.80;100.00;98283.63;4763965;30;20420;-80
2023/10/19 05:54:54;;;;;;;0.82;0.82;;;;;;;3.88;100.00;98291.38;4750393;30;20063;-81
2023/10/19 05:57:22;;;;;;;0.90;0.90;;;;;;;3.92;100.00;98286.38;4750130;30;20467;-80
2023/10/19 05:59:49;;;;;;;0.88;0.88;;;;;;;3.93;100.00;98290.72;4753377;30;20063;-80
2023/10/19 06:02:17;;;;;;;0.90;0.90;;;;;;;3.90;100.00;98285.81;4753269;30;20052;-81
2023/10/19 06:04:58;;;;;;;0.80;0.80;;;;;;;3.83;100.00;98275.19;4752418;30;20147;-80
2023/10/19 06:07:27;;;;;;;0.85;0.85;;;;;;;3.90;100.00;98285.81;4753012;30;20052;-81
2023/10/19 06:09:54;;;;;;;0.90;0.90;;;;;;;3.87;100.00;98271.06;4754626;30;20056;-81
2023/10/19 06:12:21;;;;;;;0.80;0.80;;;;;;;3.92;100.00;98289.06;4755518;30;20540;-81
2023/10/19 06:14:48;;;;;;;0.90;0.90;;;;;;;3.93;100.00;98284.56;4757043;30;20123;-81
2023/10/19 06:17:19;;;;;;;0.80;0.80;;;;;;;3.89;100.00;98273.50;4754895;30;20115;-80
2023/10/19 06:19:47;;;;;;;0.82;0.82;;;;;;;3.95;100.00;98293.16;4754168;30;20056;-79
2023/10/19 06:22:16;;;;;;;0.80;0.80;;;;;;;3.95;100.00;98280.63;4753373;30;20060;-79
2023/10/19 06:24:46;;;;;;;0.90;0.90;;;;;;;3.98;100.00;98285.53;4753451;30;20263;-80
2023/10/19 06:27:13;;;;;;;0.90;0.90;;;;;;;3.99;100.00;98289.00;4753646;30;20397;-81
2023/10/19 06:29:41;;;;;;;0.90;0.90;;;;;;;3.96;100.00;98292.94;4753008;30;20059;-81
2023/10/19 06:32:09;;;;;;;0.90;0.90;;;;;;;3.98;100.00;98288.19;4736991;30;20063;-79
2023/10/19 06:34:36;;;;;;;0.90;0.90;;;;;;;4.08;100.00;98293.84;4753057;30;20082;-79
2023/10/19 06:37:05;;;;;;;0.90;0.90;;;;;;;4.12;100.00;98291.56;4753078;30;20083;-80
2023/10/19 06:39:32;;;;;;;0.90;0.90;;;;;;;4.27;100.00;98296.53;4752989;30;20063;-81
2023/10/19 06:41:59;;;;;;;0.90;0.90;;;;;;;4.37;100.00;98296.03;4753304;30;20086;-81
2023/10/19 06:44:27;;;;;;;0.90;0.90;;;;;;;4.49;100.00;98294.28;4751888;30;20543;-79
2023/10/19 06:46:54;;;;;;;0.90;0.90;;;;;;;4.73;100.00;98296.03;4766446;30;20151;-80
2023/10/19 06:49:21;;;;;;;0.90;0.90;;;;;;;4.77;100.00;98291.06;4752746;30;20204;-81
2023/10/19 06:51:48;;;;;;;0.90;0.90;;;;;;;4.80;100.00;98292.47;4752310;30;20440;-80
2023/10/19 06:54:16;;;;;;;0.80;0.80;;;;;;;4.81;100.00;98291.41;4750960;30;20091;-80
2023/10/19 06:56:45;;;;;;;0.90;0.90;;;;;;;4.90;100.00;98288.22;4752090;30;20086;-80
2023/10/19 06:59:13;;;;;;;0.90;0.90;;;;;;;5.05;100.00;98292.38;4752527;30;20429;-81
2023/10/19 07:01:40;;;;;;;0.90;0.90;;;;;;;5.10;100.00;98292.50;4752393;30;20437;-80
2023/10/19 07:04:08;;;;;;;0.80;0.80;;;;;;;5.02;100.00;98298.16;4765645;30;20084;-79
2023/10/19 07:06:38;;;;;;;0.90;0.90;;;;;;;5.05;100.00;98292.38;4750982;30;20150;-78
2023/10/19 07:09:06;;;;;;;0.90;0.90;;;;;;;5.18;100.00;98300.19;4759772;30;20110;-80
2023/10/19 07:11:33;;;;;;;0.80;0.80;;;;;;;5.29;99.98;98298.59;4752126;30;20534;-79
2023/10/19 07:14:00;;;;;;;0.80;0.80;;;;;;;5.34;99.73;98306.75;4750347;30;20060;-78
2023/10/19 07:16:28;;;;;;;0.90;0.90;;;;;;;5.25;99.27;98306.28;4748202;30;20048;-79
2023/10/19 07:18:57;;;;;;;0.80;0.80;;;;;;;5.21;98.55;98307.78;4743576;30;20141;-79
2023/10/19 07:21:25;;;;;;;0.80;0.80;;;;;;;5.21;98.43;98297.06;4748192;30;20114;-80
2023/10/19 07:23:53;;;;;;;0.90;0.90;;;;;;;5.16;98.25;98307.63;4752433;30;20052;-80
2023/10/19 07:26:22;;;;;;;0.90;0.90;;;;;;;5.11;97.93;98297.59;4746064;30;20068;-79
2023/10/19 07:28:50;;;;;;;0.90;0.90;;;;;;;5.20;97.56;98311.50;4410119;30;10001067;-78
2023/10/19 07:31:17;;;;;;;0.90;0.90;;;;;;;5.31;97.20;98308.03;4740503;30;20060;-78
2023/10/19 07:33:49;;;;;;;0.90;0.90;;;;;;;5.46;96.10;98309.50;4743586;30;20143;-78
2023/10/19 07:36:18;;;;;;;0.90;0.90;;;;;;;5.65;95.77;98314.56;4738815;30;20147;-78
2023/10/19 07:38:47;;;;;;;0.90;0.90;;;;;;;5.80;95.53;98315.97;4739917;30;20076;-79
2023/10/19 07:41:14;;;;;;;0.90;0.90;;;;;;;6.01;95.13;98311.97;4739368;30;20370;-79
2023/10/19 07:43:44;;;;;;;0.85;0.85;;;;;;;6.14;93.84;98316.28;4742660;30;20045;-79
2023/10/19 07:46:11;;;;;;;0.90;0.90;;;;;;;6.13;93.56;98309.28;4741767;30;20566;-80
2023/10/19 07:48:39;;;;;;;0.90;0.90;;;;;;;6.06;92.63;98312.88;4743077;30;20144;-78
2023/10/19 07:51:10;;;;;;;0.85;0.85;;;;;;;6.00;92.60;98305.78;4742897;30;20548;-78
2023/10/19 07:53:40;;;;;;;0.90;0.90;;;;;;;5.94;91.55;98309.38;4747857;30;20056;-80
2023/10/19 07:56:07;;;;;;;0.90;0.90;;;;;;;5.95;91.89;98316.38;4742893;30;20672;-79
2023/10/19 07:58:34;;;;;;;0.77;0.77;;;;;;;5.95;91.54;98311.03;4745264;30;20276;-79
2023/10/19 08:01:01;;;;;;;0.90;0.90;;;;;;;5.86;91.23;98307.81;4738300;30;20173;-79
2023/10/19 08:03:29;;;;;;;0.80;0.80;;;;;;;5.82;90.56;98316.53;4744018;30;20234;-78
2023/10/19 08:05:56;;;;;;;0.90;0.90;;;;;;;5.80;90.28;98322.16;4736243;30;20055;-79
2023/10/19 08:08:24;;;;;;;0.90;0.90;;;;;;;5.81;89.94;98320.28;4747814;30;20424;-79
2023/10/19 08:10:52;;;;;;;0.90;0.90;;;;;;;5.80;89.89;98318.66;4740619;30;20512;-79
2023/10/19 08:13:19;;;;;;;0.90;0.90;;;;;;;5.74;89.48;98319.56;4731032;30;20072;-77
2023/10/19 08:15:46;;;;;;;0.88;0.88;;;;;;;5.73;89.85;98318.75;4730322;30;20048;-80
2023/10/19 08:18:14;;;;;;;0.88;0.88;;;;;;;5.85;89.86;98321.47;4743188;30;20053;-78
2023/10/19 08:20:45;;;;;;;0.80;0.80;;;;;;;5.88;89.77;98323.69;4744448;30;20055;-79
2023/10/19 08:23:23;;;;;;;0.82;0.82;;;;;;;5.87;89.94;98322.03;4735932;30;20080;-79
2023/10/19 08:25:50;;;;;;;0.80;0.80;;;;;;;5.85;89.80;98329.50;4741152;30;20068;-80
2023/10/19 08:28:23;;;;;;;0.80;0.80;;;;;;;5.79;89.26;98322.38;4762522;30;20113;-79
2023/10/19 08:30:57;;;;;;;0.70;0.70;;;;;;;5.88;89.47;98317.50;4734955;30;20060;-79
2023/10/19 08:33:26;;;;;;;0.90;0.90;;;;;;;5.98;89.25;98326.63;4740235;30;20147;-79
2023/10/19 08:35:54;;;;;;;0.80;0.80;;;;;;;6.05;88.70;98321.16;4743749;30;20064;-80
2023/10/19 08:38:23;;;;;;;0.90;0.90;;;;;;;6.22;88.55;98329.31;4736756;30;20064;-78
2023/10/19 08:40:50;;;;;;;0.90;0.90;;;;;;;6.34;88.61;98332.81;4723060;30;20202;-79
2023/10/19 08:43:19;;;;;;;0.80;0.80;;;;;;;6.44;87.63;98327.69;4754687;30;20062;-78
2023/10/19 08:45:46;;;;;;;0.80;0.80;;;;;;;6.30;86.51;98326.28;4745281;30;20048;-80
2023/10/19 08:48:14;;;;;;;0.80;0.80;;;;;;;6.16;86.84;98331.06;4744582;30;20079;-80
2023/10/19 08:50:41;;;;;;;0.80;0.80;;;;;;;6.05;87.21;98327.34;4747301;30;20062;-79
2023/10/19 08:53:09;;;;;;;0.80;0.80;;;;;;;5.90;87.66;98332.31;4746396;30;20199;-80
2023/10/19 08:55:38;;;;;;;0.80;0.80;;;;;;;5.81;88.11;98339.03;4732903;30;20524;-80
2023/10/19 08:58:16;;;;;;;0.80;0.80;;;;;;;5.64;88.81;98328.16;4732026;30;20114;-80
2023/10/19 09:00:49;;;;;;;0.90;0.90;;;;;;;5.77;89.28;98332.47;4738369;30;20060;-79
2023/10/19 09:03:16;;;;;;;0.80;0.80;;;;;;;5.83;90.09;98339.63;4750842;30;20451;-80
2023/10/19 09:05:46;;;;;;;0.80;0.80;;;;;;;5.95;90.13;98332.47;4750537;30;20428;-81
2023/10/19 09:08:16;;;;;;;0.90;0.90;;;;;;;6.06;90.00;98338.88;4750645;30;20320;-80
2023/10/19 09:10:45;;;;;;;0.80;0.80;;;;;;;6.10;90.17;98336.53;4750814;30;20056;-80
2023/10/19 09:13:14;;;;;;;0.80;0.80;;;;;;;6.11;90.27;98338.19;4750455;30;20056;-79
2023/10/19 09:15:49;;;;;;;0.90;0.90;;;;;;;6.05;90.62;98335.38;4733874;30;20059;-81
2023/10/19 09:18:20;;;;;;;0.90;0.90;;;;;;;6.11;90.39;98333.63;4750514;30;20428;-81
2023/10/19 09:20:52;;;;;;;0.90;0.90;;;;;;;6.33;89.48;98333.03;4751004;30;20114;-79
2023/10/19 09:23:28;;;;;;;0.90;0.90;;;;;;;6.52;88.33;98337.22;4750494;30;20100;-80
2023/10/19 09:25:57;;;;;;;0.80;0.80;;;;;;;6.64;87.26;98335.38;4749779;30;20056;-80
2023/10/19 09:28:25;;;;;;;0.80;0.80;;;;;;;6.64;86.61;98337.22;4750274;30;20052;-79
2023/10/19 09:30:53;;;;;;;0.90;0.90;;;;;;;6.73;86.41;98341.16;4763805;30;20524;-81
2023/10/19 09:33:22;;;;;;;0.90;0.90;;;;;;;6.80;85.46;98347.22;4750247;30;20083;-80
2023/10/19 09:35:52;;;;;;;0.80;0.80;;;;;;;7.01;84.94;98342.28;4749078;30;20060;-80
2023/10/19 09:38:24;;;;;;;0.80;0.80;;;;;;;7.28;83.44;98337.19;4750092;30;20056;-80
2023/10/19 09:40:54;;;;;;;0.90;0.90;;;;;;;7.63;81.34;98345.09;4750232;30;20078;-80
2023/10/19 09:43:33;;;;;;;0.80;0.80;;;;;;;7.75;79.75;98343.16;4749062;30;20420;-80
2023/10/19 09:46:07;;;;;;;0.90;0.90;;;;;;;7.54;78.94;98346.53;4750344;30;20654;-79
2023/10/19 09:48:55;;;;;;;0.80;0.80;;;;;;;7.49;79.57;98349.09;4750058;30;20056;-80
2023/10/19 09:51:23;;;;;;;0.90;0.90;;;;;;;7.76;78.86;98339.41;4749998;30;20063;-80
2023/10/19 09:54:06;;;;;;;0.85;0.85;;;;;;;7.77;78.17;98341.03;4750393;30;20564;-80
2023/10/19 09:56:39;;;;;;;0.90;0.90;;;;;;;7.65;78.47;98339.47;4763101;30;20071;-81
2023/10/19 09:59:07;;;;;;;0.80;0.80;;;;;;;7.57;79.15;98337.97;4750225;30;20060;-80
2023/10/19 10:02:06;;;;;;;0.70;0.70;;;;;;;7.44;79.33;98341.78;4749737;30;20063;-80
2023/10/19 10:04:37;;;;;;;0.80;0.80;;;;;;;7.01;79.51;98340.41;4747891;30;20204;-80
2023/10/19 10:07:06;;;;;;;0.80;0.80;;;;;;;6.77;80.77;98334.28;4749664;30;20060;-82
2023/10/19 10:09:45;;;;;;;0.80;0.80;;;;;;;6.58;81.20;98346.19;4749567;30;20056;-81
2023/10/19 10:12:20;;;;;;;0.73;0.73;;;;;;;6.43;81.40;98347.50;4747982;30;20143;-80
2023/10/19 10:14:57;;;;;;;0.80;0.80;;;;;;;6.36;82.29;98341.44;4744435;30;20537;-80
2023/10/19 10:17:28;;;;;;;0.77;0.77;;;;;;;6.28;82.89;98344.47;4748474;30;20080;-81
2023/10/19 10:20:19;;;;;;;0.80;0.80;;;;;;;6.19;82.71;98348.53;4749591;30;20147;-80
2023/10/19 10:23:31;;;;;;;0.80;0.80;;;;;;;6.15;82.87;98350.84;4748802;30;20177;-81
2023/10/19 10:25:59;;;;;;;0.70;0.70;;;;;;;5.97;83.97;98353.63;4753887;30;20061;-80
2023/10/19 10:28:28;;;;;;;0.70;0.70;;;;;;;5.92;84.24;98359.66;4723994;30;20060;-79
2023/10/19 10:31:24;;;;;;;0.80;0.80;;;;;;;5.78;84.92;98347.53;4732881;30;20092;-80
2023/10/19 10:34:52;;;;;;;0.70;0.70;;;;;;;5.52;86.48;98359.41;4715883;30;20083;-80
2023/10/19 10:38:08;;;;;;;0.77;0.77;;;;;;;5.01;89.64;98364.19;4685112;30;20061;-78
2023/10/19 10:40:45;;;;;;;0.80;0.80;;;;;;;4.85;91.98;98351.44;4693532;30;20077;-79
2023/10/19 10:43:13;;;;;;;0.80;0.80;;;;;;;4.69;94.06;98358.19;4694693;30;20651;-79
2023/10/19 10:45:40;;;;;;;0.80;0.80;;;;;;;4.62;95.75;98358.25;4694857;30;20062;-79
2023/10/19 10:48:13;;;;;;;0.80;0.80;;;;;;;4.60;97.28;98354.97;4689203;30;20054;-80
2023/10/19 10:50:41;;;;;;;0.80;0.80;;;;;;;4.64;98.55;98360.72;4688412;30;20331;-79
2023/10/19 10:53:11;;;;;;;0.80;0.80;;;;;;;4.69;99.67;98363.53;4698010;30;20324;-79
2023/10/19 10:55:39;;;;;;;0.80;0.80;;;;;;;4.64;100.00;98364.19;4696837;30;20049;-79
2023/10/19 10:58:06;;;;;;;0.80;0.80;;;;;;;4.68;100.00;98368.03;4694901;30;20057;-78
2023/10/19 11:00:34;;;;;;;0.80;0.80;;;;;;;4.75;100.00;98370.66;4695167;30;20483;-80
2023/10/19 11:03:04;;;;;;;0.80;0.80;;;;;;;4.75;100.00;98363.44;4697391;30;20152;-78
2023/10/19 11:05:33;;;;;;;0.80;0.80;;;;;;;4.74;100.00;98369.03;4708574;30;20049;-80
2023/10/19 11:08:13;;;;;;;0.88;0.88;;;;;;;4.82;100.00;98365.25;4713660;30;20057;-79
2023/10/19 11:10:42;;;;;;;0.80;0.80;;;;;;;4.83;100.00;98364.19;4715218;30;20068;-79
2023/10/19 11:13:11;;;;;;;0.80;0.80;;;;;;;4.88;100.00;98351.78;4715027;30;20146;-79
2023/10/19 11:15:56;;;;;;;0.90;0.90;;;;;;;5.16;100.00;98364.63;4715033;30;20057;-79
2023/10/19 11:18:45;;;;;;;0.80;0.80;;;;;;;5.31;100.00;98356.19;4714861;30;20059;-79
2023/10/19 11:21:14;;;;;;;0.80;0.80;;;;;;;5.49;100.00;98370.59;4720332;30;20090;-80
2023/10/19 11:23:49;;;;;;;0.80;0.80;;;;;;;5.58;100.00;98372.72;4752412;30;20235;-78
2023/10/19 11:26:20;;;;;;;0.80;0.80;;;;;;;5.49;100.00;98355.34;4751996;30;20101;-78
2023/10/19 11:28:50;;;;;;;0.90;0.90;;;;;;;5.70;100.00;98366.56;4751333;30;20074;-80
2023/10/19 11:31:19;;;;;;;0.80;0.80;;;;;;;5.71;100.00;98370.91;4751203;30;20113;-79
2023/10/19 11:33:49;;;;;;;0.80;0.80;;;;;;;5.53;100.00;98361.06;4752541;30;20051;-79
2023/10/19 11:36:18;;;;;;;0.80;0.80;;;;;;;5.47;99.57;98364.63;4751695;30;20056;-78
2023/10/19 11:38:47;;;;;;;0.80;0.80;;;;;;;5.46;99.54;98363.00;4751064;30;20060;-79
2023/10/19 11:41:16;;;;;;;0.80;0.80;;;;;;;5.40;99.57;98364.75;4748307;30;20479;-80
2023/10/19 11:43:48;;;;;;;0.80;0.80;;;;;;;5.44;100.00;98357.88;4746241;30;20425;-80
2023/10/19 11:46:22;;;;;;;0.80;0.80;;;;;;;5.56;99.57;98365.97;4744034;30;20114;-80
2023/10/19 11:48:50;;;;;;;0.80;0.80;;;;;;;5.45;98.86;98361.38;4751029;30;20095;-79
2023/10/19 11:51:17;;;;;;;0.70;0.70;;;;;;;5.43;98.86;98364.28;4750423;30;20056;-79
2023/10/19 11:53:45;;;;;;;0.80;0.80;;;;;;;5.35;98.47;98361.94;4747459;30;20060;-80
2023/10/19 11:56:13;;;;;;;0.80;0.80;;;;;;;5.35;98.74;98359.25;4748435;30;20105;-79
2023/10/19 11:58:41;;;;;;;0.70;0.70;;;;;;;5.35;98.48;98357.38;4750560;30;20095;-77
2023/10/19 12:01:13;;;;;;;0.80;0.80;;;;;;;5.31;98.19;98363.41;4752352;30;20416;-82
2023/10/19 12:03:41;;;;;;;0.80;0.80;;;;;;;5.29;97.78;98365.50;4762807;30;20615;-80
2023/10/19 12:06:10;;;;;;;0.75;0.75;;;;;;;5.28;97.99;98366.53;4746086;30;20075;-80
2023/10/19 12:08:38;;;;;;;0.80;0.80;;;;;;;5.21;97.48;98358.59;4750780;30;20424;-80
2023/10/19 12:11:15;;;;;;;0.80;0.80;;;;;;;5.17;96.89;98352.88;4750523;30;20159;-79